Flight Track Log - Related Links

Times and Time Zones

All times are in EDT time to prevent confusion due to time zone crossing. See the RHC9861 flight status page for this flight to view local times or setup timezone preferences in your user account.

Time Position Orientation Groundspeed Altitude Reporting Facility
EDT Latitude Longitude Course Direction KTS MPH feet Rate Location/Type
Wed 03:49:00 AM 22.5517 100.6985 354° North  Level Estimated
Wed 03:50:00 AM 22.6343 100.6897 354° North  Level Estimated
Wed 03:51:00 AM 22.7168 100.6810 354° North  Level Estimated
Wed 03:52:00 AM 22.7994 100.6722 354° North  Level Estimated
Wed 03:53:00 AM 22.8819 100.6634 354° North  Level Estimated
Wed 03:54:00 AM 22.9645 100.6546 354° North  Level Estimated
Wed 03:55:00 AM 23.0470 100.6457 354° North  Level Estimated
Wed 03:56:00 AM 23.1295 100.6369 354° North  Level Estimated
Wed 03:57:00 AM 23.2121 100.6281 354° North  Level Estimated
Wed 03:58:00 AM 23.2946 100.6192 354° North  Level Estimated
Wed 03:59:00 AM 23.3771 100.6103 354° North  Level Estimated
Wed 04:00:00 AM 23.4597 100.6014 354° North  Level Estimated
Wed 04:01:00 AM 23.5422 100.5926 354° North  Level Estimated
Wed 04:02:00 AM 23.6248 100.5837 354° North  Level Estimated
Wed 04:03:00 AM 23.7073 100.5748 354° North  Level Estimated
Wed 04:04:00 AM 23.7899 100.5658 354° North  Level Estimated
Wed 04:05:00 AM 23.8724 100.5569 354° North  Level Estimated
Wed 04:06:00 AM 23.9549 100.5480 354° North  Level Estimated
Wed 04:07:00 AM 24.0375 100.5390 354° North  Level Estimated
Wed 04:08:00 AM 24.1200 100.5300 354° North  Level Estimated
Wed 04:09:00 AM 24.2026 100.5210 354° North  Level Estimated
Wed 04:10:00 AM 24.2851 100.5120 354° North  Level Estimated
Wed 04:11:00 AM 24.3676 100.5031 354° North  Level Estimated
Wed 04:12:00 AM 24.4501 100.4940 354° North  Level Estimated
Wed 04:13:00 AM 24.5327 100.4850 354° North  Level Estimated
Wed 04:14:00 AM 24.6152 100.4760 354° North  Level Estimated
Wed 04:15:00 AM 24.6977 100.4669 354° North  Level Estimated
Wed 04:16:00 AM 24.7803 100.4578 354° North  Level Estimated
Wed 04:17:00 AM 24.8628 100.4488 354° North  Level Estimated
Wed 04:18:00 AM 24.9453 100.4397 354° North  Level Estimated
Wed 04:19:00 AM 25.0279 100.4306 354° North  Level Estimated
Wed 04:20:00 AM 25.1104 100.4215 354° North  Level Estimated
Wed 04:21:00 AM 25.1929 100.4124 354° North  Level Estimated
Wed 04:22:00 AM 25.2754 100.4032 354° North  Level Estimated
Wed 04:23:00 AM 25.3580 100.3941 354° North  Level Estimated
Wed 04:24:00 AM 25.4405 100.3849 354° North  Level Estimated
Wed 04:25:00 AM 25.5230 100.3757 354° North  Level Estimated
Wed 04:26:00 AM 25.6056 100.3665 354° North  Level Estimated
Wed 04:27:00 AM 25.6881 100.3573 354° North  Level Estimated
Wed 04:28:00 AM 25.7706 100.3481 354° North  Level Estimated
Wed 04:29:00 AM 25.8531 100.3389 354° North  Level Estimated
Wed 04:30:00 AM 25.9357 100.3297 354° North  Level Estimated
Wed 04:31:00 AM 26.0182 100.3204 354° North  Level Estimated
Wed 04:32:00 AM 26.1007 100.3111 354° North  Level Estimated
Wed 04:33:00 AM 26.1832 100.3019 354° North  Level Estimated
Wed 04:34:00 AM 26.2658 100.2926 354° North  Level Estimated
Wed 04:35:00 AM 26.3483 100.2833 354° North  Level Estimated
Wed 04:36:00 AM 26.4308 100.2740 354° North  Level Estimated
Wed 04:37:00 AM 26.5133 100.2646 354° North  Level Estimated
Wed 04:38:00 AM 26.5958 100.2553 354° North  Level Estimated
Wed 04:39:00 AM 26.6784 100.2459 354° North  Level Estimated
Wed 04:40:00 AM 26.6792 100.2458 354° North  Level Estimated
Wed 04:41:00 AM 26.6792 100.2458 138° Southeast  Level Estimated
Wed 04:42:00 AM 26.6792 100.2458 138° Southeast  Level Estimated
Wed 04:43:00 AM 26.6792 100.2458 138° Southeast  Level Estimated
Wed 04:44:00 AM 26.6792 100.2458 138° Southeast  Level Estimated
Wed 04:45:00 AM 26.6792 100.2458 138° Southeast  Level Estimated

Login

Don't have an account? Register now (free) for customized features, flight alerts, and more!